Time;durP1;ratioP1;P1;durP2;ratioP2;P2;SDS_P1;SDS_P2;PMS_P1;PMS_P2;Temp;Humidity;BMP_temperature;BMP_pressure;BME280_temperature;BME280_humidity;BME280_pressure;Samples;Min_cycle;Max_cycle;Signal;HPM_P1;HPM_P2
2023/01/02 00:02:17;;;;;;;2.30;2.20;;;;;;;;;;4971748;28;20449;-68
2023/01/02 00:04:43;;;;;;;2.40;2.00;;;;;;;;;;4968273;28;20438;-67
2023/01/02 00:07:09;;;;;;;2.53;2.43;;;;;;;;;;4969169;28;20528;-67
2023/01/02 00:09:35;;;;;;;2.50;2.40;;;;;;;;;;4971576;28;20441;-67
2023/01/02 00:12:01;;;;;;;2.83;2.60;;;;;;;;;;4971958;28;20433;-67
2023/01/02 00:14:27;;;;;;;6.57;1.87;;;;;;;;;;4972526;28;20463;-67
2023/01/02 00:16:53;;;;;;;2.40;2.10;;;;;;;;;;4971702;28;20632;-67
2023/01/02 00:19:19;;;;;;;4.57;2.77;;;;;;;;;;4969769;28;20529;-67
2023/01/02 00:21:45;;;;;;;5.57;1.80;;;;;;;;;;4969769;28;20449;-68
2023/01/02 00:24:11;;;;;;;2.20;2.00;;;;;;;;;;4971862;28;20434;-68
2023/01/02 00:26:37;;;;;;;4.30;2.13;;;;;;;;;;4970587;28;20442;-67
2023/01/02 00:29:03;;;;;;;2.53;2.20;;;;;;;;;;4970596;28;20482;-67
2023/01/02 00:31:29;;;;;;;3.90;2.07;;;;;;;;;;4970267;28;20446;-67
2023/01/02 00:33:55;;;;;;;2.07;1.97;;;;;;;;;;4970156;28;20895;-67
2023/01/02 00:36:21;;;;;;;2.57;2.30;;;;;;;;;;4968826;28;21002;-68
2023/01/02 00:38:47;;;;;;;5.13;1.77;;;;;;;;;;4971441;28;20577;-67
2023/01/02 00:41:13;;;;;;;1.77;1.67;;;;;;;;;;4971322;28;20449;-67
2023/01/02 00:43:39;;;;;;;3.77;1.90;;;;;;;;;;4968683;28;20426;-68
2023/01/02 00:46:05;;;;;;;3.00;2.00;;;;;;;;;;4969037;28;20438;-67
2023/01/02 00:48:31;;;;;;;1.80;1.70;;;;;;;;;;4971362;28;20434;-67
2023/01/02 00:50:57;;;;;;;2.03;1.93;;;;;;;;;;4967300;28;20496;-68
2023/01/02 00:53:23;;;;;;;2.50;2.40;;;;;;;;;;4969417;28;20793;-67
2023/01/02 00:55:49;;;;;;;2.80;1.97;;;;;;;;;;4969015;28;20484;-67
2023/01/02 00:58:15;;;;;;;1.87;1.70;;;;;;;;;;4970045;28;21018;-67
2023/01/02 01:00:41;;;;;;;2.07;1.93;;;;;;;;;;4968945;28;20452;-67
2023/01/02 01:03:07;;;;;;;1.93;1.83;;;;;;;;;;4969130;28;20466;-68
2023/01/02 01:05:33;;;;;;;2.10;2.00;;;;;;;;;;4969869;28;20505;-67
2023/01/02 01:07:59;;;;;;;2.30;1.50;;;;;;;;;;4969446;28;20990;-67
2023/01/02 01:10:25;;;;;;;2.70;2.40;;;;;;;;;;4970996;28;20434;-67
2023/01/02 01:12:52;;;;;;;7.57;1.97;;;;;;;;;;4969091;28;20441;-68
2023/01/02 01:15:18;;;;;;;1.57;1.57;;;;;;;;;;4967655;28;20443;-67
2023/01/02 01:17:44;;;;;;;3.57;1.40;;;;;;;;;;4967782;28;20497;-67
2023/01/02 01:20:10;;;;;;;3.30;2.60;;;;;;;;;;4971544;28;20438;-67
2023/01/02 01:22:36;;;;;;;2.77;2.00;;;;;;;;;;4970076;28;20530;-67
2023/01/02 01:25:02;;;;;;;2.40;2.17;;;;;;;;;;4968357;28;20427;-68
2023/01/02 01:27:28;;;;;;;5.23;2.17;;;;;;;;;;4969813;28;20486;-67
2023/01/02 01:29:54;;;;;;;2.27;2.07;;;;;;;;;;4970551;28;20961;-68
2023/01/02 01:32:20;;;;;;;4.53;2.13;;;;;;;;;;4969829;28;20934;-67
2023/01/02 01:34:46;;;;;;;4.20;2.47;;;;;;;;;;4970040;28;21001;-68
2023/01/02 01:37:12;;;;;;;7.10;2.10;;;;;;;;;;4967663;28;20539;-68
2023/01/02 01:39:38;;;;;;;7.13;2.53;;;;;;;;;;4968823;28;20440;-68
2023/01/02 01:42:05;;;;;;;3.43;2.23;;;;;;;;;;4969190;28;20939;-67
2023/01/02 01:44:41;;;;;;;2.23;1.83;;;;;;;;;;4970088;28;20520;-68
2023/01/02 01:47:22;;;;;;;4.73;2.10;;;;;;;;;;4969613;28;20418;-68
2023/01/02 01:49:50;;;;;;;2.33;2.23;;;;;;;;;;4970302;28;20429;-67
2023/01/02 01:52:21;;;;;;;10.13;2.73;;;;;;;;;;4968471;28;20445;-68
2023/01/02 01:54:50;;;;;;;8.73;2.50;;;;;;;;;;4970257;28;20433;-67
2023/01/02 01:57:19;;;;;;;4.00;3.60;;;;;;;;;;4962006;28;20593;-67
2023/01/02 01:59:45;;;;;;;3.87;2.50;;;;;;;;;;4966053;28;20430;-67
2023/01/02 02:02:11;;;;;;;4.17;3.23;;;;;;;;;;4965613;28;20456;-67
2023/01/02 02:04:37;;;;;;;6.40;3.93;;;;;;;;;;4967120;28;20433;-68
2023/01/02 02:07:03;;;;;;;2.63;2.53;;;;;;;;;;4966515;28;20935;-68
2023/01/02 02:09:32;;;;;;;3.30;3.20;;;;;;;;;;4968492;28;20434;-68
2023/01/02 02:11:58;;;;;;;2.90;2.73;;;;;;;;;;4965676;28;20426;-68
2023/01/02 02:14:24;;;;;;;3.70;2.57;;;;;;;;;;4969480;28;20949;-67
2023/01/02 02:16:57;;;;;;;5.43;2.73;;;;;;;;;;4970158;28;20576;-67
2023/01/02 02:19:41;;;;;;;5.30;2.43;;;;;;;;;;4970622;28;20430;-68
2023/01/02 02:22:26;;;;;;;9.17;3.80;;;;;;;;;;4966753;28;20438;-67
2023/01/02 02:24:52;;;;;;;2.67;2.50;;;;;;;;;;4970067;28;20429;-67
2023/01/02 02:27:37;;;;;;;3.57;3.07;;;;;;;;;;4969808;28;20450;-67
2023/01/02 02:30:06;;;;;;;2.50;2.13;;;;;;;;;;4968919;28;20487;-68
2023/01/02 02:32:51;;;;;;;8.17;4.30;;;;;;;;;;4968855;28;20438;-67
2023/01/02 02:35:31;;;;;;;7.20;4.57;;;;;;;;;;4968088;28;20520;-67
2023/01/02 02:38:00;;;;;;;7.30;4.13;;;;;;;;;;4969739;28;20508;-67
2023/01/02 02:40:42;;;;;;;9.33;6.03;;;;;;;;;;4968837;28;20784;-68
2023/01/02 02:43:24;;;;;;;8.67;5.90;;;;;;;;;;4965903;28;20486;-67
2023/01/02 02:45:50;;;;;;;14.57;5.17;;;;;;;;;;4969281;28;20453;-67
2023/01/02 02:48:26;;;;;;;4.17;3.63;;;;;;;;;;4969968;28;20429;-67
2023/01/02 02:50:58;;;;;;;3.23;2.93;;;;;;;;;;4968899;28;20981;-68
2023/01/02 02:53:25;;;;;;;2.10;2.10;;;;;;;;;;4967702;28;20790;-68
2023/01/02 02:55:53;;;;;;;5.63;3.33;;;;;;;;;;4968253;28;20548;-67
2023/01/02 02:58:20;;;;;;;4.47;2.70;;;;;;;;;;4967030;28;20492;-67
2023/01/02 03:00:46;;;;;;;2.50;2.27;;;;;;;;;;4967088;28;20433;-67
2023/01/02 03:03:20;;;;;;;8.23;5.87;;;;;;;;;;4968579;28;20445;-67
2023/01/02 03:05:55;;;;;;;7.70;4.23;;;;;;;;;;4969761;28;20788;-67
2023/01/02 03:08:38;;;;;;;3.40;3.30;;;;;;;;;;4969986;28;21440;-68
2023/01/02 03:11:04;;;;;;;7.10;4.40;;;;;;;;;;4964956;28;20450;-67
2023/01/02 03:13:33;;;;;;;9.27;3.93;;;;;;;;;;4967964;28;20497;-67
2023/01/02 03:16:17;;;;;;;3.40;3.20;;;;;;;;;;4970262;28;20485;-67
2023/01/02 03:19:02;;;;;;;4.87;3.47;;;;;;;;;;4973553;28;20449;-67
2023/01/02 03:21:55;;;;;;;8.37;4.87;;;;;;;;;;4971137;28;20892;-67
2023/01/02 03:24:23;;;;;;;6.60;5.57;;;;;;;;;;4973114;28;20478;-67
2023/01/02 03:26:51;;;;;;;9.70;4.80;;;;;;;;;;4971377;28;20509;-68
2023/01/02 03:29:19;;;;;;;12.07;8.00;;;;;;;;;;4970461;28;20529;-67
2023/01/02 03:31:49;;;;;;;20.90;7.37;;;;;;;;;;4971529;28;20426;-67
2023/01/02 03:34:16;;;;;;;13.17;6.00;;;;;;;;;;4972718;28;20536;-67
2023/01/02 03:36:47;;;;;;;12.07;4.97;;;;;;;;;;4971657;28;21332;-68
2023/01/02 03:39:18;;;;;;;15.70;5.23;;;;;;;;;;4972079;28;20438;-68
2023/01/02 03:41:46;;;;;;;11.73;5.60;;;;;;;;;;4970888;28;20461;-67
2023/01/02 03:44:12;;;;;;;12.47;6.27;;;;;;;;;;4967979;28;20441;-67
2023/01/02 03:46:48;;;;;;;11.13;4.30;;;;;;;;;;4972943;28;20438;-67
2023/01/02 03:49:32;;;;;;;5.97;4.23;;;;;;;;;;4972606;28;20496;-67
2023/01/02 03:51:58;;;;;;;7.83;4.10;;;;;;;;;;4971136;28;21009;-67
2023/01/02 03:54:25;;;;;;;4.00;3.77;;;;;;;;;;4967004;28;20434;-67
2023/01/02 03:56:59;;;;;;;5.87;3.40;;;;;;;;;;4972351;28;20482;-67
2023/01/02 03:59:45;;;;;;;6.27;3.90;;;;;;;;;;4972048;28;20646;-67
2023/01/02 04:02:28;;;;;;;7.20;5.07;;;;;;;;;;4968685;28;20434;-68
2023/01/02 04:04:57;;;;;;;6.63;4.87;;;;;;;;;;4971565;28;20938;-67
2023/01/02 04:07:41;;;;;;;11.03;4.90;;;;;;;;;;4970874;28;20434;-67
2023/01/02 04:10:08;;;;;;;6.10;4.27;;;;;;;;;;4970164;28;20938;-67
2023/01/02 04:12:36;;;;;;;6.47;4.80;;;;;;;;;;4970415;28;20441;-67
2023/01/02 04:15:05;;;;;;;4.27;3.90;;;;;;;;;;4970931;28;20768;-67
2023/01/02 04:17:33;;;;;;;5.00;4.17;;;;;;;;;;4970179;28;20496;-67
2023/01/02 04:20:01;;;;;;;5.60;2.90;;;;;;;;;;4971753;28;20441;-67
2023/01/02 04:22:29;;;;;;;2.67;2.57;;;;;;;;;;4971666;28;20445;-67
2023/01/02 04:25:05;;;;;;;4.47;2.67;;;;;;;;;;4971173;28;20441;-67
2023/01/02 04:27:34;;;;;;;2.73;2.53;;;;;;;;;;4971183;28;20457;-67
2023/01/02 04:30:00;;;;;;;3.00;2.87;;;;;;;;;;4969355;28;20592;-67
2023/01/02 04:32:36;;;;;;;2.93;2.63;;;;;;;;;;4971619;28;20442;-67
2023/01/02 04:35:05;;;;;;;4.33;1.80;;;;;;;;;;4970733;28;21023;-67
2023/01/02 04:37:33;;;;;;;7.13;2.63;;;;;;;;;;4969317;28;20501;-67
2023/01/02 04:40:02;;;;;;;3.23;2.93;;;;;;;;;;4970662;28;20848;-68
2023/01/02 04:42:28;;;;;;;2.80;2.70;;;;;;;;;;4967565;28;20804;-68
2023/01/02 04:44:54;;;;;;;4.07;3.70;;;;;;;;;;4970087;28;20438;-68
2023/01/02 04:47:20;;;;;;;3.63;3.37;;;;;;;;;;4970925;28;20962;-67
2023/01/02 04:49:45;;;;;;;5.97;3.60;;;;;;;;;;4971392;28;20808;-68
2023/01/02 04:52:11;;;;;;;7.03;3.67;;;;;;;;;;4970873;28;20438;-67
2023/01/02 04:54:37;;;;;;;2.80;2.60;;;;;;;;;;4968732;28;20450;-67
2023/01/02 04:57:03;;;;;;;5.23;2.83;;;;;;;;;;4971582;28;20482;-67
2023/01/02 04:59:29;;;;;;;5.50;2.67;;;;;;;;;;4967246;28;20522;-67
2023/01/02 05:01:55;;;;;;;4.63;2.27;;;;;;;;;;4969588;28;20779;-67
2023/01/02 05:04:21;;;;;;;3.47;3.13;;;;;;;;;;4970216;28;20793;-68
2023/01/02 05:06:47;;;;;;;8.53;2.53;;;;;;;;;;4970960;28;20500;-67
2023/01/02 05:09:14;;;;;;;2.43;2.27;;;;;;;;;;4970071;28;20437;-67
2023/01/02 05:11:40;;;;;;;4.17;3.87;;;;;;;;;;4969386;28;20615;-67
2023/01/02 05:14:06;;;;;;;3.40;3.10;;;;;;;;;;4969849;28;20450;-67
2023/01/02 05:16:32;;;;;;;12.40;3.37;;;;;;;;;;4968132;28;20986;-68
2023/01/02 05:18:58;;;;;;;4.20;3.80;;;;;;;;;;4969188;28;20473;-68
2023/01/02 05:24:09;;;;;;;7.93;3.50;;;;;;;;;;4969268;28;20937;-67
2023/01/02 05:26:35;;;;;;;3.50;3.20;;;;;;;;;;4969768;28;20578;-67
2023/01/02 05:29:01;;;;;;;2.93;2.73;;;;;;;;;;4968250;28;20910;-67
2023/01/02 05:31:27;;;;;;;11.07;2.07;;;;;;;;;;4968762;28;20462;-67
2023/01/02 05:33:54;;;;;;;2.23;2.10;;;;;;;;;;4970025;28;20466;-68
2023/01/02 05:36:21;;;;;;;8.63;2.70;;;;;;;;;;4967448;28;20525;-67
2023/01/02 05:38:47;;;;;;;3.03;2.57;;;;;;;;;;4967325;28;20437;-67
2023/01/02 05:41:14;;;;;;;2.07;1.97;;;;;;;;;;4971243;28;20418;-68
2023/01/02 05:43:41;;;;;;;4.83;2.90;;;;;;;;;;4969175;28;20429;-67
2023/01/02 05:46:11;;;;;;;4.97;2.10;;;;;;;;;;4968031;28;20434;-67
2023/01/02 05:48:38;;;;;;;2.53;2.43;;;;;;;;;;4970773;28;20440;-68
2023/01/02 05:51:05;;;;;;;2.13;2.00;;;;;;;;;;4969502;28;20529;-68
2023/01/02 05:53:31;;;;;;;2.67;2.40;;;;;;;;;;4967894;28;20485;-68
2023/01/02 05:56:08;;;;;;;3.50;2.73;;;;;;;;;;4969475;28;20569;-69
2023/01/02 05:58:34;;;;;;;4.23;2.50;;;;;;;;;;4970976;28;20430;-67
2023/01/02 06:01:04;;;;;;;3.03;2.90;;;;;;;;;;4970149;28;20904;-67
2023/01/02 06:03:30;;;;;;;4.97;2.53;;;;;;;;;;4968822;28;20450;-67
2023/01/02 06:05:56;;;;;;;3.73;2.67;;;;;;;;;;4968688;28;20437;-67
2023/01/02 06:08:21;;;;;;;2.60;2.37;;;;;;;;;;4968802;28;20457;-67
2023/01/02 06:10:51;;;;;;;4.93;2.03;;;;;;;;;;4970757;28;20426;-67
2023/01/02 06:13:18;;;;;;;6.33;2.70;;;;;;;;;;4969705;28;20441;-67
2023/01/02 06:15:44;;;;;;;4.30;1.70;;;;;;;;;;4970199;28;20465;-67
2023/01/02 06:18:10;;;;;;;1.83;1.73;;;;;;;;;;4969959;28;20473;-67
2023/01/02 06:20:36;;;;;;;3.23;1.30;;;;;;;;;;4964419;28;20449;-68
2023/01/02 06:23:02;;;;;;;4.80;1.07;;;;;;;;;;4967847;28;20449;-67
2023/01/02 06:25:28;;;;;;;1.60;1.30;;;;;;;;;;4970404;28;20430;-68
2023/01/02 06:27:54;;;;;;;1.03;1.03;;;;;;;;;;4969719;28;20434;-67
2023/01/02 06:30:20;;;;;;;2.33;1.30;;;;;;;;;;4966834;28;20507;-67
2023/01/02 06:32:46;;;;;;;3.93;1.50;;;;;;;;;;4968557;28;20433;-68
2023/01/02 06:35:11;;;;;;;7.07;1.83;;;;;;;;;;4968965;28;20481;-68
2023/01/02 06:37:43;;;;;;;2.90;2.53;;;;;;;;;;4970244;28;20495;-67
2023/01/02 06:40:09;;;;;;;3.67;3.50;;;;;;;;;;4970406;28;20441;-67
2023/01/02 06:42:35;;;;;;;1.43;1.43;;;;;;;;;;4969159;28;20441;-67
2023/01/02 06:45:01;;;;;;;5.93;1.67;;;;;;;;;;4969151;28;20437;-68
2023/01/02 06:47:27;;;;;;;3.73;1.70;;;;;;;;;;4969567;28;20541;-67
2023/01/02 06:49:52;;;;;;;1.30;1.17;;;;;;;;;;4967900;28;20442;-67
2023/01/02 06:52:18;;;;;;;1.40;1.03;;;;;;;;;;4973219;28;20434;-67
2023/01/02 06:54:44;;;;;;;6.83;1.50;;;;;;;;;;4973749;28;20433;-67
2023/01/02 06:57:10;;;;;;;4.13;0.93;;;;;;;;;;4971066;28;20545;-67
2023/01/02 06:59:36;;;;;;;4.47;0.97;;;;;;;;;;4971362;28;20434;-67
2023/01/02 07:02:02;;;;;;;1.17;1.17;;;;;;;;;;4971048;28;20500;-67
2023/01/02 07:04:28;;;;;;;1.03;1.03;;;;;;;;;;4972611;28;20942;-67
2023/01/02 07:06:54;;;;;;;8.33;1.23;;;;;;;;;;4972164;28;20521;-68
2023/01/02 07:09:20;;;;;;;2.93;0.80;;;;;;;;;;4972635;28;20480;-67
2023/01/02 07:11:46;;;;;;;4.97;1.13;;;;;;;;;;4972936;28;21012;-67
2023/01/02 07:14:12;;;;;;;1.87;1.03;;;;;;;;;;4971240;28;20508;-67
2023/01/02 07:16:38;;;;;;;5.00;1.07;;;;;;;;;;4970564;28;20616;-67
2023/01/02 07:19:04;;;;;;;14.70;1.03;;;;;;;;;;4972247;28;20446;-67
2023/01/02 07:21:30;;;;;;;3.57;1.10;;;;;;;;;;4971615;28;20495;-67
2023/01/02 07:23:56;;;;;;;3.13;1.30;;;;;;;;;;4964304;28;20440;-67
2023/01/02 07:26:22;;;;;;;7.00;1.03;;;;;;;;;;4971842;28;20437;-67
2023/01/02 07:28:48;;;;;;;3.80;0.90;;;;;;;;;;4971619;28;20448;-67
2023/01/02 07:31:15;;;;;;;2.50;1.50;;;;;;;;;;4971032;28;20429;-69
2023/01/02 07:33:42;;;;;;;2.87;1.30;;;;;;;;;;4971461;28;20562;-67
2023/01/02 07:36:10;;;;;;;1.40;1.10;;;;;;;;;;4971847;28;20477;-66
2023/01/02 07:38:37;;;;;;;1.67;1.03;;;;;;;;;;4970045;28;20465;-67
2023/01/02 07:41:04;;;;;;;2.50;1.30;;;;;;;;;;4966406;28;20791;-67
2023/01/02 07:43:29;;;;;;;1.80;1.50;;;;;;;;;;4972156;28;20860;-67
2023/01/02 07:46:01;;;;;;;2.70;1.53;;;;;;;;;;4970587;28;20524;-67
2023/01/02 07:48:29;;;;;;;5.03;1.13;;;;;;;;;;4972674;28;20434;-67
2023/01/02 07:50:59;;;;;;;3.00;1.30;;;;;;;;;;4968902;28;20437;-67
2023/01/02 07:53:25;;;;;;;4.00;1.43;;;;;;;;;;4970670;28;20434;-68
2023/01/02 07:55:55;;;;;;;4.53;1.30;;;;;;;;;;4969052;28;21190;-68
2023/01/02 07:58:21;;;;;;;2.60;1.20;;;;;;;;;;4970570;28;21357;-68
2023/01/02 08:00:47;;;;;;;2.70;1.70;;;;;;;;;;4967721;28;20427;-68
2023/01/02 08:03:12;;;;;;;3.83;3.00;;;;;;;;;;4969819;28;20869;-69
2023/01/02 08:05:38;;;;;;;2.60;1.17;;;;;;;;;;4967081;28;20441;-69
2023/01/02 08:08:04;;;;;;;6.90;3.50;;;;;;;;;;4967684;28;20947;-68
2023/01/02 08:10:30;;;;;;;6.60;1.00;;;;;;;;;;4962546;28;20521;-67
2023/01/02 08:12:56;;;;;;;1.73;0.97;;;;;;;;;;4964290;28;20573;-68
2023/01/02 08:15:23;;;;;;;1.17;1.17;;;;;;;;;;4965333;28;20429;-71
2023/01/02 08:17:49;;;;;;;3.07;1.43;;;;;;;;;;4967889;28;20993;-68
2023/01/02 08:20:15;;;;;;;1.63;1.40;;;;;;;;;;4962677;28;20435;-68
2023/01/02 08:22:41;;;;;;;3.03;1.53;;;;;;;;;;4952739;28;20521;-68
2023/01/02 08:25:08;;;;;;;10.67;1.80;;;;;;;;;;4952205;28;20574;-68
2023/01/02 08:27:34;;;;;;;4.53;1.70;;;;;;;;;;4954447;28;20859;-69
2023/01/02 08:30:00;;;;;;;2.50;1.20;;;;;;;;;;4956541;28;20494;-68
2023/01/02 08:32:26;;;;;;;8.50;1.30;;;;;;;;;;4953389;28;20477;-68
2023/01/02 08:34:52;;;;;;;1.83;1.63;;;;;;;;;;4953522;28;20477;-70
2023/01/02 08:37:18;;;;;;;3.40;1.63;;;;;;;;;;4950251;28;20510;-69
2023/01/02 08:39:44;;;;;;;7.00;1.80;;;;;;;;;;4949185;28;20458;-69
2023/01/02 08:42:10;;;;;;;4.20;1.50;;;;;;;;;;4951982;28;20580;-68
2023/01/02 08:44:36;;;;;;;13.67;1.67;;;;;;;;;;4950879;28;20442;-68
2023/01/02 08:47:03;;;;;;;5.23;0.70;;;;;;;;;;4953781;28;20451;-69
2023/01/02 08:49:29;;;;;;;0.70;0.70;;;;;;;;;;4948239;28;20484;-69
2023/01/02 08:51:55;;;;;;;15.27;1.20;;;;;;;;;;4952615;28;20483;-68
2023/01/02 08:54:21;;;;;;;2.67;0.87;;;;;;;;;;4963834;28;20815;-69
2023/01/02 08:56:47;;;;;;;3.23;0.97;;;;;;;;;;4957199;28;20482;-68
2023/01/02 08:59:14;;;;;;;2.07;1.10;;;;;;;;;;4965436;28;20441;-67
2023/01/02 09:01:40;;;;;;;6.77;1.40;;;;;;;;;;4962914;28;20441;-69
2023/01/02 09:04:07;;;;;;;1.80;1.10;;;;;;;;;;4966347;28;20452;-69
2023/01/02 09:06:34;;;;;;;8.33;1.60;;;;;;;;;;4961122;28;20440;-69
2023/01/02 09:09:00;;;;;;;3.33;1.80;;;;;;;;;;4967782;28;20779;-68
2023/01/02 09:11:31;;;;;;;3.27;1.20;;;;;;;;;;4957753;28;20525;-71
2023/01/02 09:13:57;;;;;;;5.40;1.70;;;;;;;;;;4952080;28;20533;-69
2023/01/02 09:16:23;;;;;;;3.20;1.70;;;;;;;;;;4957791;28;20569;-69
2023/01/02 09:18:50;;;;;;;4.00;1.40;;;;;;;;;;4951801;28;20451;-70
2023/01/02 09:21:16;;;;;;;2.97;1.50;;;;;;;;;;4952971;28;20497;-71
2023/01/02 09:23:42;;;;;;;5.90;1.20;;;;;;;;;;4953779;28;20443;-68
2023/01/02 09:26:08;;;;;;;6.67;1.23;;;;;;;;;;4952204;28;20457;-71
2023/01/02 09:28:35;;;;;;;1.93;1.40;;;;;;;;;;4952332;28;20550;-69
2023/01/02 09:31:11;;;;;;;7.33;1.40;;;;;;;;;;4950677;28;20497;-68
2023/01/02 09:33:37;;;;;;;9.07;1.40;;;;;;;;;;4951688;28;20482;-69
2023/01/02 09:36:04;;;;;;;1.87;0.90;;;;;;;;;;4947874;28;20451;-69
2023/01/02 09:38:31;;;;;;;14.33;1.97;;;;;;;;;;4951555;28;20438;-69
2023/01/02 09:40:58;;;;;;;5.23;1.60;;;;;;;;;;4953250;28;20801;-68
2023/01/02 09:43:30;;;;;;;2.90;1.50;;;;;;;;;;4951292;28;20536;-69
2023/01/02 09:45:58;;;;;;;2.70;1.43;;;;;;;;;;4951582;28;20463;-68
2023/01/02 09:48:24;;;;;;;25.97;2.30;;;;;;;;;;4950605;28;20450;-68
2023/01/02 09:50:50;;;;;;;5.30;3.10;;;;;;;;;;4952102;28;20450;-70
2023/01/02 09:53:17;;;;;;;10.87;2.10;;;;;;;;;;4960231;28;20538;-67
2023/01/02 09:55:46;;;;;;;2.47;1.77;;;;;;;;;;4951800;28;20453;-68
2023/01/02 09:58:14;;;;;;;9.83;1.33;;;;;;;;;;4952576;28;21050;-68
2023/01/02 10:00:41;;;;;;;6.10;1.60;;;;;;;;;;4954690;28;20448;-68
2023/01/02 10:03:13;;;;;;;9.10;1.67;;;;;;;;;;4948701;28;20859;-69
2023/01/02 10:05:50;;;;;;;6.80;1.33;;;;;;;;;;4950358;28;20449;-69
2023/01/02 10:08:40;;;;;;;1.47;1.10;;;;;;;;;;4951762;28;20816;-68
2023/01/02 10:11:18;;;;;;;3.23;1.40;;;;;;;;;;4953224;28;20574;-68
2023/01/02 10:13:52;;;;;;;2.60;1.13;;;;;;;;;;4955174;28;20496;-68
2023/01/02 10:16:22;;;;;;;5.60;2.00;;;;;;;;;;4967436;28;20473;-69
2023/01/02 10:18:51;;;;;;;6.37;1.70;;;;;;;;;;4955899;28;20451;-68
2023/01/02 10:21:20;;;;;;;2.73;1.00;;;;;;;;;;4956467;28;20517;-68
2023/01/02 10:23:45;;;;;;;11.03;2.40;;;;;;;;;;4959618;28;20455;-68
2023/01/02 10:26:19;;;;;;;5.50;1.40;;;;;;;;;;4968195;28;20441;-69
2023/01/02 10:28:45;;;;;;;18.90;2.20;;;;;;;;;;4968987;28;20488;-68
2023/01/02 10:31:17;;;;;;;2.30;1.13;;;;;;;;;;4958648;28;20426;-68
2023/01/02 10:33:55;;;;;;;7.60;1.43;;;;;;;;;;4966237;28;20485;-68
2023/01/02 10:36:25;;;;;;;10.23;1.43;;;;;;;;;;4955040;28;20493;-68
2023/01/02 10:38:52;;;;;;;6.40;1.70;;;;;;;;;;4968446;28;20477;-68
2023/01/02 10:41:18;;;;;;;10.67;1.90;;;;;;;;;;4961204;28;20443;-68
2023/01/02 10:43:47;;;;;;;2.70;1.47;;;;;;;;;;4952591;28;20529;-67
2023/01/02 10:46:13;;;;;;;5.27;2.23;;;;;;;;;;4954688;28;20457;-68
2023/01/02 10:48:41;;;;;;;5.73;2.03;;;;;;;;;;4955388;28;20446;-68
2023/01/02 10:51:11;;;;;;;15.27;2.53;;;;;;;;;;4957079;28;20457;-69
2023/01/02 10:53:37;;;;;;;15.87;2.40;;;;;;;;;;4959649;28;20959;-68
2023/01/02 10:56:06;;;;;;;6.73;2.00;;;;;;;;;;4967444;28;20438;-68
2023/01/02 10:58:32;;;;;;;12.27;2.20;;;;;;;;;;4968256;28;20437;-69
2023/01/02 11:01:05;;;;;;;5.50;2.30;;;;;;;;;;4968704;28;20497;-68
2023/01/02 11:03:31;;;;;;;4.10;2.00;;;;;;;;;;4960868;28;20461;-68
2023/01/02 11:05:58;;;;;;;7.43;2.03;;;;;;;;;;4959085;28;20434;-71
2023/01/02 11:08:33;;;;;;;11.90;3.43;;;;;;;;;;4960063;28;20438;-68
2023/01/02 11:11:02;;;;;;;8.73;3.07;;;;;;;;;;4959319;28;20524;-70
2023/01/02 11:13:41;;;;;;;12.33;5.70;;;;;;;;;;4949165;28;20446;-68
2023/01/02 11:16:07;;;;;;;9.63;2.07;;;;;;;;;;4954145;28;20441;-68
2023/01/02 11:18:34;;;;;;;7.50;3.10;;;;;;;;;;4952810;28;20545;-67
2023/01/02 11:21:04;;;;;;;24.70;7.60;;;;;;;;;;4954414;28;20501;-70
2023/01/02 11:23:40;;;;;;;15.87;8.30;;;;;;;;;;4954894;28;20446;-71
2023/01/02 11:26:12;;;;;;;7.80;3.30;;;;;;;;;;4962834;28;20959;-69
2023/01/02 11:28:40;;;;;;;3.73;3.10;;;;;;;;;;4950621;28;20488;-68
2023/01/02 11:31:10;;;;;;;10.90;3.17;;;;;;;;;;4951746;28;20552;-70
2023/01/02 11:33:37;;;;;;;9.60;2.97;;;;;;;;;;4952788;28;21025;-68
2023/01/02 11:36:03;;;;;;;5.77;3.93;;;;;;;;;;4953392;28;20845;-68
2023/01/02 11:38:46;;;;;;;8.23;4.13;;;;;;;;;;4953708;28;20438;-68
2023/01/02 11:44:16;;;;;;;14.83;3.20;;;;;;;;;;4857739;28;20491;-68
2023/01/02 11:46:42;;;;;;;9.43;4.10;;;;;;;;;;4909255;29;20528;-68
2023/01/02 11:49:13;;;;;;;7.70;4.13;;;;;;;;;;4922147;29;20472;-69
2023/01/02 11:51:39;;;;;;;19.40;7.90;;;;;;;;;;4909034;29;20452;-67
2023/01/02 11:54:11;;;;;;;8.03;3.23;;;;;;;;;;4909501;29;20503;-67
2023/01/02 11:56:39;;;;;;;6.90;4.33;;;;;;;;;;4909358;29;21016;-67
2023/01/02 11:59:05;;;;;;;12.83;7.77;;;;;;;;;;4908427;29;20444;-68
2023/01/02 12:01:31;;;;;;;9.40;4.37;;;;;;;;;;4908457;29;20960;-67
2023/01/02 12:03:57;;;;;;;16.37;6.40;;;;;;;;;;4907919;29;20447;-67
2023/01/02 12:06:23;;;;;;;11.10;6.07;;;;;;;;;;4910408;29;20196;-68
2023/01/02 12:09:10;;;;;;;14.30;3.77;;;;;;;;;;4914284;29;20519;-68
2023/01/02 12:11:54;;;;;;;11.03;2.00;;;;;;;;;;4912836;29;20455;-68
2023/01/02 12:14:28;;;;;;;16.20;2.40;;;;;;;;;;4912274;29;20451;-67
2023/01/02 12:17:12;;;;;;;9.20;3.00;;;;;;;;;;4914322;29;20888;-68
2023/01/02 12:19:57;;;;;;;4.20;2.00;;;;;;;;;;4911509;29;20440;-68
2023/01/02 12:22:23;;;;;;;16.33;2.80;;;;;;;;;;4910707;29;20444;-68
2023/01/02 12:25:08;;;;;;;5.83;1.90;;;;;;;;;;4913065;29;20592;-68
2023/01/02 12:27:52;;;;;;;7.83;2.40;;;;;;;;;;4907570;29;20444;-68
2023/01/02 12:30:19;;;;;;;8.03;2.57;;;;;;;;;;4907649;29;21480;-68
2023/01/02 12:32:52;;;;;;;9.07;2.90;;;;;;;;;;4840287;29;20477;-68
2023/01/02 12:35:21;;;;;;;6.03;2.80;;;;;;;;;;4893891;29;20487;-68
2023/01/02 12:37:48;;;;;;;10.67;1.67;;;;;;;;;;4893472;29;20552;-68
2023/01/02 12:40:33;;;;;;;13.63;2.30;;;;;;;;;;4894127;29;20476;-68
2023/01/02 12:43:02;;;;;;;4.13;2.63;;;;;;;;;;4894090;29;20441;-68
2023/01/02 12:45:31;;;;;;;2.70;2.10;;;;;;;;;;4893889;29;20444;-68
2023/01/02 12:48:03;;;;;;;7.20;2.80;;;;;;;;;;4892996;29;20446;-67
2023/01/02 12:50:43;;;;;;;2.90;2.20;;;;;;;;;;4893447;29;20445;-68
2023/01/02 12:53:09;;;;;;;9.73;3.33;;;;;;;;;;4894951;29;20458;-68
2023/01/02 12:55:49;;;;;;;7.20;2.13;;;;;;;;;;4895480;29;20826;-68
2023/01/02 12:58:15;;;;;;;6.13;3.70;;;;;;;;;;4894522;29;20496;-68
2023/01/02 13:01:00;;;;;;;5.70;2.20;;;;;;;;;;4893665;29;20441;-68
2023/01/02 13:03:45;;;;;;;17.57;5.07;;;;;;;;;;4893567;29;20445;-68
2023/01/02 13:06:19;;;;;;;12.87;2.17;;;;;;;;;;4894788;29;20429;-68
2023/01/02 13:08:49;;;;;;;5.87;2.50;;;;;;;;;;4895829;29;20445;-67
2023/01/02 13:11:20;;;;;;;7.30;2.77;;;;;;;;;;4894186;29;20441;-67
2023/01/02 13:13:46;;;;;;;3.50;2.00;;;;;;;;;;4896287;29;20438;-67
2023/01/02 13:16:14;;;;;;;2.53;1.80;;;;;;;;;;4894919;29;20803;-67
2023/01/02 13:18:49;;;;;;;4.63;2.30;;;;;;;;;;4895119;29;20554;-68
2023/01/02 13:21:23;;;;;;;10.10;5.80;;;;;;;;;;4894993;29;20601;-67
2023/01/02 13:23:50;;;;;;;9.67;1.50;;;;;;;;;;4909631;29;20438;-67
2023/01/02 13:26:18;;;;;;;3.97;1.90;;;;;;;;;;4895456;29;20445;-68
2023/01/02 13:29:01;;;;;;;3.50;2.10;;;;;;;;;;4894884;29;20477;-67
2023/01/02 13:31:27;;;;;;;8.07;1.67;;;;;;;;;;4894045;29;20516;-68
2023/01/02 13:33:54;;;;;;;5.33;2.63;;;;;;;;;;4894003;29;20523;-67
2023/01/02 13:36:20;;;;;;;8.97;1.73;;;;;;;;;;4894762;29;20562;-67
2023/01/02 13:38:47;;;;;;;9.60;1.73;;;;;;;;;;4895094;29;20445;-67
2023/01/02 13:41:15;;;;;;;1.30;1.20;;;;;;;;;;4894352;29;20430;-67
2023/01/02 13:43:41;;;;;;;9.43;2.10;;;;;;;;;;4894725;29;21051;-67
2023/01/02 13:46:10;;;;;;;9.63;2.00;;;;;;;;;;4894372;29;20452;-67
2023/01/02 13:48:43;;;;;;;5.53;2.50;;;;;;;;;;4909337;29;20588;-67
2023/01/02 13:51:12;;;;;;;7.60;1.80;;;;;;;;;;4893513;29;20482;-68
2023/01/02 13:53:40;;;;;;;11.73;2.20;;;;;;;;;;4909357;29;20441;-67
2023/01/02 13:56:05;;;;;;;13.00;2.57;;;;;;;;;;4909130;29;20520;-67
2023/01/02 13:58:58;;;;;;;8.97;2.30;;;;;;;;;;4894572;29;20553;-67
2023/01/02 14:01:24;;;;;;;4.03;2.37;;;;;;;;;;4885167;29;20577;-67
2023/01/02 14:04:18;;;;;;;4.63;1.97;;;;;;;;;;4889510;29;20548;-68
2023/01/02 14:06:46;;;;;;;9.50;1.70;;;;;;;;;;4907680;29;20497;-67
2023/01/02 14:09:14;;;;;;;3.73;1.60;;;;;;;;;;4892786;29;20445;-67
2023/01/02 14:11:52;;;;;;;13.37;2.07;;;;;;;;;;4893422;29;20441;-70
2023/01/02 14:14:18;;;;;;;6.53;1.80;;;;;;;;;;4922865;29;20740;-68
2023/01/02 14:16:47;;;;;;;2.83;1.40;;;;;;;;;;4894936;29;20977;-68
2023/01/02 14:19:13;;;;;;;3.63;1.70;;;;;;;;;;4893248;29;20434;-68
2023/01/02 14:21:40;;;;;;;4.00;1.47;;;;;;;;;;4893421;29;20457;-67
2023/01/02 14:24:07;;;;;;;11.63;2.83;;;;;;;;;;4893074;29;20449;-67
2023/01/02 14:26:34;;;;;;;4.00;1.80;;;;;;;;;;4890636;29;20438;-69
2023/01/02 14:29:04;;;;;;;3.50;1.20;;;;;;;;;;4907013;29;20450;-67
2023/01/02 14:31:34;;;;;;;2.03;1.77;;;;;;;;;;5001026;23;20885;-67
2023/01/02 14:34:00;;;;;;;7.23;1.53;;;;;;;;;;4952077;28;20936;-68
2023/01/02 14:36:35;;;;;;;1.60;1.00;;;;;;;;;;4949551;28;20486;-67
2023/01/02 14:39:01;;;;;;;4.77;2.00;;;;;;;;;;4951233;28;20418;-67
2023/01/02 14:44:32;;;;;;;4.63;1.53;;;;;;;;;;4951620;28;20410;-67
2023/01/02 14:46:58;;;;;;;4.03;1.43;;;;;;;;;;4949763;28;20450;-67
2023/01/02 14:49:25;;;;;;;2.20;1.10;;;;;;;;;;4950171;28;20501;-68
2023/01/02 14:51:57;;;;;;;4.60;1.73;;;;;;;;;;4951304;28;20470;-67
2023/01/02 14:54:24;;;;;;;6.07;2.10;;;;;;;;;;4950610;29;20430;-67
2023/01/02 14:56:55;;;;;;;1.90;1.53;;;;;;;;;;4950229;28;20505;-67
2023/01/02 14:59:25;;;;;;;3.23;1.77;;;;;;;;;;4950586;28;20482;-67
2023/01/02 15:01:53;;;;;;;4.00;1.50;;;;;;;;;;4950438;28;20442;-68